sensor_id;sensor_type;location;lat;lon;timestamp;P1;durP1;ratioP1;P2;durP2;ratioP2
3767;SDS011;1899;49.966;7.106;2022-11-15T05:01:37;14.10;;;11.55;;
3767;SDS011;1899;49.966;7.106;2022-11-15T05:04:02;16.20;;;12.07;;
3767;SDS011;1899;49.966;7.106;2022-11-15T05:06:49;10.63;;;9.15;;
3767;SDS011;1899;49.966;7.106;2022-11-15T05:09:15;14.50;;;10.68;;
3767;SDS011;1899;49.966;7.106;2022-11-15T05:11:40;14.57;;;10.93;;
3767;SDS011;1899;49.966;7.106;2022-11-15T05:14:05;12.83;;;9.60;;
3767;SDS011;1899;49.966;7.106;2022-11-15T05:16:31;12.63;;;10.30;;
3767;SDS011;1899;49.966;7.106;2022-11-15T05:18:56;13.70;;;9.90;;
3767;SDS011;1899;49.966;7.106;2022-11-15T05:21:21;12.30;;;10.63;;
3767;SDS011;1899;49.966;7.106;2022-11-15T05:23:47;9.17;;;8.17;;
3767;SDS011;1899;49.966;7.106;2022-11-15T05:26:12;12.33;;;9.30;;
3767;SDS011;1899;49.966;7.106;2022-11-15T05:28:39;15.60;;;11.60;;
3767;SDS011;1899;49.966;7.106;2022-11-15T05:31:08;8.70;;;7.80;;
3767;SDS011;1899;49.966;7.106;2022-11-15T05:33:34;10.40;;;9.30;;
3767;SDS011;1899;49.966;7.106;2022-11-15T05:36:02;16.30;;;13.05;;
3767;SDS011;1899;49.966;7.106;2022-11-15T05:38:29;23.27;;;16.50;;
3767;SDS011;1899;49.966;7.106;2022-11-15T05:40:54;20.07;;;15.57;;
3767;SDS011;1899;49.966;7.106;2022-11-15T05:43:20;19.20;;;14.77;;
3767;SDS011;1899;49.966;7.106;2022-11-15T05:45:45;23.80;;;18.10;;
3767;SDS011;1899;49.966;7.106;2022-11-15T05:48:10;13.40;;;12.00;;
3767;SDS011;1899;49.966;7.106;2022-11-15T05:50:36;22.10;;;16.70;;
3767;SDS011;1899;49.966;7.106;2022-11-15T05:53:03;15.85;;;14.25;;
3767;SDS011;1899;49.966;7.106;2022-11-15T05:55:29;19.70;;;14.70;;
3767;SDS011;1899;49.966;7.106;2022-11-15T05:57:54;15.13;;;11.90;;
3767;SDS011;1899;49.966;7.106;2022-11-15T06:00:20;18.33;;;14.80;;
3767;SDS011;1899;49.966;7.106;2022-11-15T06:02:45;13.03;;;10.77;;
3767;SDS011;1899;49.966;7.106;2022-11-15T06:05:10;16.23;;;13.20;;
3767;SDS011;1899;49.966;7.106;2022-11-15T06:07:35;14.93;;;12.30;;
3767;SDS011;1899;49.966;7.106;2022-11-15T06:10:01;17.47;;;13.33;;
3767;SDS011;1899;49.966;7.106;2022-11-15T06:12:26;17.65;;;13.85;;
3767;SDS011;1899;49.966;7.106;2022-11-15T06:14:51;11.73;;;10.63;;
3767;SDS011;1899;49.966;7.106;2022-11-15T06:17:16;20.20;;;13.17;;
3767;SDS011;1899;49.966;7.106;2022-11-15T06:19:42;13.13;;;10.67;;
3767;SDS011;1899;49.966;7.106;2022-11-15T06:22:07;15.80;;;13.00;;
3767;SDS011;1899;49.966;7.106;2022-11-15T06:24:32;12.48;;;11.10;;
3767;SDS011;1899;49.966;7.106;2022-11-15T06:26:57;14.90;;;12.10;;
3767;SDS011;1899;49.966;7.106;2022-11-15T06:29:23;11.68;;;10.00;;
3767;SDS011;1899;49.966;7.106;2022-11-15T06:31:49;12.23;;;10.93;;
3767;SDS011;1899;49.966;7.106;2022-11-15T06:34:14;12.67;;;10.40;;
3767;SDS011;1899;49.966;7.106;2022-11-15T06:36:39;16.63;;;13.70;;
3767;SDS011;1899;49.966;7.106;2022-11-15T06:39:05;12.87;;;10.83;;
3767;SDS011;1899;49.966;7.106;2022-11-15T06:41:30;15.40;;;12.23;;
3767;SDS011;1899;49.966;7.106;2022-11-15T06:43:56;11.85;;;10.55;;
3767;SDS011;1899;49.966;7.106;2022-11-15T06:46:21;15.32;;;12.05;;
3767;SDS011;1899;49.966;7.106;2022-11-15T06:48:47;12.53;;;10.40;;
3767;SDS011;1899;49.966;7.106;2022-11-15T06:51:14;15.63;;;12.13;;
3767;SDS011;1899;49.966;7.106;2022-11-15T06:53:39;13.90;;;11.53;;
3767;SDS011;1899;49.966;7.106;2022-11-15T06:56:05;18.23;;;12.90;;
3767;SDS011;1899;49.966;7.106;2022-11-15T06:58:30;13.98;;;10.77;;
3767;SDS011;1899;49.966;7.106;2022-11-15T07:01:02;12.20;;;10.60;;
3767;SDS011;1899;49.966;7.106;2022-11-15T07:03:28;15.37;;;12.03;;
3767;SDS011;1899;49.966;7.106;2022-11-15T07:05:54;17.67;;;12.60;;
3767;SDS011;1899;49.966;7.106;2022-11-15T07:08:19;14.77;;;11.03;;
3767;SDS011;1899;49.966;7.106;2022-11-15T07:10:44;17.20;;;13.30;;
3767;SDS011;1899;49.966;7.106;2022-11-15T07:13:10;13.97;;;11.03;;
3767;SDS011;1899;49.966;7.106;2022-11-15T07:15:35;12.20;;;9.97;;
3767;SDS011;1899;49.966;7.106;2022-11-15T07:18:00;15.57;;;12.17;;
3767;SDS011;1899;49.966;7.106;2022-11-15T07:20:26;10.90;;;9.80;;
3767;SDS011;1899;49.966;7.106;2022-11-15T07:22:51;15.40;;;11.63;;
3767;SDS011;1899;49.966;7.106;2022-11-15T07:25:24;16.70;;;12.80;;
3767;SDS011;1899;49.966;7.106;2022-11-15T07:27:55;13.07;;;11.40;;
3767;SDS011;1899;49.966;7.106;2022-11-15T07:30:21;14.73;;;12.43;;
3767;SDS011;1899;49.966;7.106;2022-11-15T07:32:46;13.40;;;9.93;;
3767;SDS011;1899;49.966;7.106;2022-11-15T07:35:11;15.50;;;12.13;;
3767;SDS011;1899;49.966;7.106;2022-11-15T07:37:37;17.07;;;12.80;;
3767;SDS011;1899;49.966;7.106;2022-11-15T07:40:02;14.67;;;12.13;;
3767;SDS011;1899;49.966;7.106;2022-11-15T07:42:27;14.43;;;12.20;;
3767;SDS011;1899;49.966;7.106;2022-11-15T07:45:11;14.45;;;10.95;;
3767;SDS011;1899;49.966;7.106;2022-11-15T07:47:36;13.83;;;11.33;;
3767;SDS011;1899;49.966;7.106;2022-11-15T07:50:01;13.70;;;10.30;;
3767;SDS011;1899;49.966;7.106;2022-11-15T07:52:26;16.52;;;12.40;;
3767;SDS011;1899;49.966;7.106;2022-11-15T07:54:52;13.70;;;12.10;;
3767;SDS011;1899;49.966;7.106;2022-11-15T07:57:17;13.33;;;10.90;;
3767;SDS011;1899;49.966;7.106;2022-11-15T07:59:42;18.03;;;14.40;;
3767;SDS011;1899;49.966;7.106;2022-11-15T08:02:08;18.10;;;13.70;;
3767;SDS011;1899;49.966;7.106;2022-11-15T08:04:33;13.83;;;10.10;;
3767;SDS011;1899;49.966;7.106;2022-11-15T08:06:59;10.57;;;8.80;;
3767;SDS011;1899;49.966;7.106;2022-11-15T08:09:24;13.00;;;11.60;;
3767;SDS011;1899;49.966;7.106;2022-11-15T08:11:49;15.97;;;11.90;;
3767;SDS011;1899;49.966;7.106;2022-11-15T08:14:15;10.87;;;9.40;;
3767;SDS011;1899;49.966;7.106;2022-11-15T08:16:40;12.20;;;9.40;;
3767;SDS011;1899;49.966;7.106;2022-11-15T08:19:05;15.93;;;12.07;;
3767;SDS011;1899;49.966;7.106;2022-11-15T08:21:30;16.67;;;12.70;;
3767;SDS011;1899;49.966;7.106;2022-11-15T08:23:55;11.40;;;10.20;;
3767;SDS011;1899;49.966;7.106;2022-11-15T08:26:21;15.33;;;11.10;;
3767;SDS011;1899;49.966;7.106;2022-11-15T08:28:46;15.13;;;12.37;;
3767;SDS011;1899;49.966;7.106;2022-11-15T08:31:16;11.90;;;10.70;;
3767;SDS011;1899;49.966;7.106;2022-11-15T08:33:42;14.30;;;11.97;;
3767;SDS011;1899;49.966;7.106;2022-11-15T08:36:10;14.63;;;12.90;;
3767;SDS011;1899;49.966;7.106;2022-11-15T08:38:36;12.47;;;11.27;;
3767;SDS011;1899;49.966;7.106;2022-11-15T08:41:02;12.20;;;10.90;;
3767;SDS011;1899;49.966;7.106;2022-11-15T08:43:28;13.88;;;11.18;;
3767;SDS011;1899;49.966;7.106;2022-11-15T08:45:57;13.20;;;11.80;;
3767;SDS011;1899;49.966;7.106;2022-11-15T08:48:22;12.07;;;10.87;;
3767;SDS011;1899;49.966;7.106;2022-11-15T08:50:47;10.40;;;9.40;;
3767;SDS011;1899;49.966;7.106;2022-11-15T08:53:12;13.05;;;11.27;;
3767;SDS011;1899;49.966;7.106;2022-11-15T08:55:38;11.27;;;10.07;;
3767;SDS011;1899;49.966;7.106;2022-11-15T08:58:04;10.73;;;9.60;;
3767;SDS011;1899;49.966;7.106;2022-11-15T09:00:29;11.77;;;10.63;;
3767;SDS011;1899;49.966;7.106;2022-11-15T09:02:54;12.38;;;10.80;;
3767;SDS011;1899;49.966;7.106;2022-11-15T09:05:19;12.70;;;10.80;;
3767;SDS011;1899;49.966;7.106;2022-11-15T09:07:45;12.87;;;11.53;;
3767;SDS011;1899;49.966;7.106;2022-11-15T09:10:10;12.57;;;11.37;;
3767;SDS011;1899;49.966;7.106;2022-11-15T09:12:35;13.40;;;11.10;;
3767;SDS011;1899;49.966;7.106;2022-11-15T09:15:00;13.43;;;12.03;;
3767;SDS011;1899;49.966;7.106;2022-11-15T09:17:26;14.07;;;11.90;;
3767;SDS011;1899;49.966;7.106;2022-11-15T09:19:51;13.63;;;12.23;;
3767;SDS011;1899;49.966;7.106;2022-11-15T09:22:16;13.70;;;11.97;;
3767;SDS011;1899;49.966;7.106;2022-11-15T09:24:41;19.53;;;14.70;;
3767;SDS011;1899;49.966;7.106;2022-11-15T09:27:07;14.63;;;13.23;;
3767;SDS011;1899;49.966;7.106;2022-11-15T09:29:32;14.70;;;11.97;;
3767;SDS011;1899;49.966;7.106;2022-11-15T09:31:58;13.15;;;11.85;;
3767;SDS011;1899;49.966;7.106;2022-11-15T09:34:24;13.40;;;11.77;;
3767;SDS011;1899;49.966;7.106;2022-11-15T09:36:49;12.80;;;10.27;;
3767;SDS011;1899;49.966;7.106;2022-11-15T09:39:14;11.40;;;10.30;;
3767;SDS011;1899;49.966;7.106;2022-11-15T09:49:14;10.13;;;9.13;;
3767;SDS011;1899;49.966;7.106;2022-11-15T09:51:41;11.15;;;10.07;;
3767;SDS011;1899;49.966;7.106;2022-11-15T09:54:33;10.77;;;9.77;;
3767;SDS011;1899;49.966;7.106;2022-11-15T10:04:37;10.97;;;9.20;;
3767;SDS011;1899;49.966;7.106;2022-11-15T10:09:54;10.20;;;8.90;;
3767;SDS011;1899;49.966;7.106;2022-11-15T10:12:22;12.27;;;11.07;;
3767;SDS011;1899;49.966;7.106;2022-11-15T10:14:48;11.63;;;10.43;;
3767;SDS011;1899;49.966;7.106;2022-11-15T10:25:30;11.38;;;10.18;;
3767;SDS011;1899;49.966;7.106;2022-11-15T10:30:21;6.43;;;5.83;;
3767;SDS011;1899;49.966;7.106;2022-11-15T10:32:47;6.60;;;6.00;;
3767;SDS011;1899;49.966;7.106;2022-11-15T10:35:22;4.77;;;4.00;;
3767;SDS011;1899;49.966;7.106;2022-11-15T10:37:47;4.63;;;3.90;;
3767;SDS011;1899;49.966;7.106;2022-11-15T10:40:22;6.20;;;3.80;;
3767;SDS011;1899;49.966;7.106;2022-11-15T10:42:48;5.03;;;4.20;;
3767;SDS011;1899;49.966;7.106;2022-11-15T10:45:29;5.43;;;4.30;;
3767;SDS011;1899;49.966;7.106;2022-11-15T10:48:18;4.50;;;4.10;;
3767;SDS011;1899;49.966;7.106;2022-11-15T10:50:41;4.55;;;4.15;;
3767;SDS011;1899;49.966;7.106;2022-11-15T10:53:48;5.55;;;4.47;;
3767;SDS011;1899;49.966;7.106;2022-11-15T10:55:56;5.28;;;4.30;;
3767;SDS011;1899;49.966;7.106;2022-11-15T11:03:44;5.40;;;4.50;;
3767;SDS011;1899;49.966;7.106;2022-11-15T11:06:17;4.80;;;4.40;;
3767;SDS011;1899;49.966;7.106;2022-11-15T11:08:58;4.10;;;3.70;;
3767;SDS011;1899;49.966;7.106;2022-11-15T11:11:24;4.50;;;3.35;;
3767;SDS011;1899;49.966;7.106;2022-11-15T11:13:49;5.10;;;3.90;;
3767;SDS011;1899;49.966;7.106;2022-11-15T11:21:09;4.45;;;3.80;;
3767;SDS011;1899;49.966;7.106;2022-11-15T11:23:53;4.80;;;4.10;;
3767;SDS011;1899;49.966;7.106;2022-11-15T11:28:55;6.97;;;3.95;;
3767;SDS011;1899;49.966;7.106;2022-11-15T11:34:10;4.60;;;3.70;;
3767;SDS011;1899;49.966;7.106;2022-11-15T11:49:29;4.00;;;3.60;;
3767;SDS011;1899;49.966;7.106;2022-11-15T11:57:23;4.60;;;3.30;;
3767;SDS011;1899;49.966;7.106;2022-11-15T11:59:56;5.07;;;4.00;;
3767;SDS011;1899;49.966;7.106;2022-11-15T12:02:29;3.65;;;3.35;;
3767;SDS011;1899;49.966;7.106;2022-11-15T12:04:59;4.35;;;3.50;;
3767;SDS011;1899;49.966;7.106;2022-11-15T12:07:32;4.72;;;3.30;;
3767;SDS011;1899;49.966;7.106;2022-11-15T12:09:59;3.30;;;2.90;;
3767;SDS011;1899;49.966;7.106;2022-11-15T12:14:55;4.50;;;3.20;;
3767;SDS011;1899;49.966;7.106;2022-11-15T12:17:23;4.93;;;3.50;;
3767;SDS011;1899;49.966;7.106;2022-11-15T12:19:48;4.70;;;3.33;;
3767;SDS011;1899;49.966;7.106;2022-11-15T12:22:20;3.10;;;2.40;;
3767;SDS011;1899;49.966;7.106;2022-11-15T12:24:55;4.75;;;2.50;;
3767;SDS011;1899;49.966;7.106;2022-11-15T12:29:50;2.40;;;2.00;;
3767;SDS011;1899;49.966;7.106;2022-11-15T12:32:27;3.10;;;2.50;;
3767;SDS011;1899;49.966;7.106;2022-11-15T12:34:53;2.88;;;1.95;;
3767;SDS011;1899;49.966;7.106;2022-11-15T12:45:33;1.80;;;0.98;;
3767;SDS011;1899;49.966;7.106;2022-11-15T12:48:45;1.70;;;1.08;;
3767;SDS011;1899;49.966;7.106;2022-11-15T13:01:06;1.77;;;0.90;;
3767;SDS011;1899;49.966;7.106;2022-11-15T13:03:31;1.55;;;1.00;;
3767;SDS011;1899;49.966;7.106;2022-11-15T13:05:58;2.03;;;1.00;;
3767;SDS011;1899;49.966;7.106;2022-11-15T13:08:43;2.20;;;1.00;;
3767;SDS011;1899;49.966;7.106;2022-11-15T13:16:58;1.70;;;1.20;;
3767;SDS011;1899;49.966;7.106;2022-11-15T13:19:23;1.10;;;0.80;;
3767;SDS011;1899;49.966;7.106;2022-11-15T13:21:49;1.23;;;1.00;;
3767;SDS011;1899;49.966;7.106;2022-11-15T13:24:33;1.50;;;1.00;;
3767;SDS011;1899;49.966;7.106;2022-11-15T13:26:58;1.70;;;0.90;;
3767;SDS011;1899;49.966;7.106;2022-11-15T13:29:24;1.40;;;0.90;;
3767;SDS011;1899;49.966;7.106;2022-11-15T13:31:50;1.53;;;1.00;;
3767;SDS011;1899;49.966;7.106;2022-11-15T13:34:23;1.30;;;1.10;;
3767;SDS011;1899;49.966;7.106;2022-11-15T13:36:49;1.55;;;1.00;;
3767;SDS011;1899;49.966;7.106;2022-11-15T13:39:33;1.10;;;1.00;;
3767;SDS011;1899;49.966;7.106;2022-11-15T13:42:01;2.10;;;1.10;;
3767;SDS011;1899;49.966;7.106;2022-11-15T13:44:30;1.83;;;1.27;;
3767;SDS011;1899;49.966;7.106;2022-11-15T13:47:06;3.33;;;1.07;;
3767;SDS011;1899;49.966;7.106;2022-11-15T13:49:32;2.17;;;1.50;;
3767;SDS011;1899;49.966;7.106;2022-11-15T13:51:57;1.40;;;1.00;;
3767;SDS011;1899;49.966;7.106;2022-11-15T13:57:05;1.77;;;1.08;;
3767;SDS011;1899;49.966;7.106;2022-11-15T13:59:34;2.00;;;1.00;;
3767;SDS011;1899;49.966;7.106;2022-11-15T14:02:11;1.15;;;1.00;;
3767;SDS011;1899;49.966;7.106;2022-11-15T14:04:37;1.30;;;1.20;;
3767;SDS011;1899;49.966;7.106;2022-11-15T14:07:03;1.80;;;1.00;;
3767;SDS011;1899;49.966;7.106;2022-11-15T14:12:01;1.70;;;1.00;;
3767;SDS011;1899;49.966;7.106;2022-11-15T14:14:27;1.75;;;1.20;;
3767;SDS011;1899;49.966;7.106;2022-11-15T14:16:57;1.10;;;1.00;;
3767;SDS011;1899;49.966;7.106;2022-11-15T14:24:32;1.55;;;1.00;;
3767;SDS011;1899;49.966;7.106;2022-11-15T14:26:57;1.70;;;1.10;;
3767;SDS011;1899;49.966;7.106;2022-11-15T14:29:40;1.00;;;0.90;;
3767;SDS011;1899;49.966;7.106;2022-11-15T14:32:13;2.00;;;0.90;;
3767;SDS011;1899;49.966;7.106;2022-11-15T14:34:39;1.70;;;0.90;;
3767;SDS011;1899;49.966;7.106;2022-11-15T14:37:04;2.70;;;0.93;;
3767;SDS011;1899;49.966;7.106;2022-11-15T14:39:29;2.97;;;1.10;;
3767;SDS011;1899;49.966;7.106;2022-11-15T14:41:55;1.50;;;1.00;;
3767;SDS011;1899;49.966;7.106;2022-11-15T14:44:20;1.10;;;0.90;;
3767;SDS011;1899;49.966;7.106;2022-11-15T14:46:46;1.30;;;1.00;;
3767;SDS011;1899;49.966;7.106;2022-11-15T14:49:13;1.50;;;0.90;;
3767;SDS011;1899;49.966;7.106;2022-11-15T14:51:39;1.73;;;1.30;;
3767;SDS011;1899;49.966;7.106;2022-11-15T14:54:04;2.70;;;1.10;;
3767;SDS011;1899;49.966;7.106;2022-11-15T14:56:30;1.00;;;0.90;;
3767;SDS011;1899;49.966;7.106;2022-11-15T14:58:55;1.60;;;1.10;;
3767;SDS011;1899;49.966;7.106;2022-11-15T15:01:21;1.50;;;1.20;;
3767;SDS011;1899;49.966;7.106;2022-11-15T15:03:48;1.75;;;1.00;;
3767;SDS011;1899;49.966;7.106;2022-11-15T15:06:13;2.93;;;1.20;;
3767;SDS011;1899;49.966;7.106;2022-11-15T15:08:39;1.37;;;1.10;;
3767;SDS011;1899;49.966;7.106;2022-11-15T15:11:08;2.08;;;1.20;;
3767;SDS011;1899;49.966;7.106;2022-11-15T15:13:35;1.67;;;1.10;;
3767;SDS011;1899;49.966;7.106;2022-11-15T15:16:00;1.90;;;1.20;;
3767;SDS011;1899;49.966;7.106;2022-11-15T15:18:25;1.57;;;1.20;;
3767;SDS011;1899;49.966;7.106;2022-11-15T15:20:55;1.40;;;1.10;;
3767;SDS011;1899;49.966;7.106;2022-11-15T15:23:21;1.60;;;1.30;;
3767;SDS011;1899;49.966;7.106;2022-11-15T15:25:48;2.50;;;1.50;;
3767;SDS011;1899;49.966;7.106;2022-11-15T15:28:14;1.50;;;1.40;;
3767;SDS011;1899;49.966;7.106;2022-11-15T15:30:39;1.83;;;1.47;;
3767;SDS011;1899;49.966;7.106;2022-11-15T15:33:04;1.30;;;1.20;;
3767;SDS011;1899;49.966;7.106;2022-11-15T15:35:30;1.67;;;1.27;;
3767;SDS011;1899;49.966;7.106;2022-11-15T15:37:56;1.30;;;1.10;;
3767;SDS011;1899;49.966;7.106;2022-11-15T15:40:22;1.53;;;1.40;;
3767;SDS011;1899;49.966;7.106;2022-11-15T15:42:48;1.67;;;1.30;;
3767;SDS011;1899;49.966;7.106;2022-11-15T15:45:14;1.90;;;1.20;;
3767;SDS011;1899;49.966;7.106;2022-11-15T15:47:40;1.50;;;1.40;;
3767;SDS011;1899;49.966;7.106;2022-11-15T15:52:39;2.33;;;1.40;;
3767;SDS011;1899;49.966;7.106;2022-11-15T15:55:05;2.33;;;1.50;;
3767;SDS011;1899;49.966;7.106;2022-11-15T15:57:30;4.13;;;2.10;;
3767;SDS011;1899;49.966;7.106;2022-11-15T15:59:55;2.00;;;1.50;;
3767;SDS011;1899;49.966;7.106;2022-11-15T16:02:21;1.40;;;1.20;;
3767;SDS011;1899;49.966;7.106;2022-11-15T16:04:46;2.80;;;1.50;;
3767;SDS011;1899;49.966;7.106;2022-11-15T16:07:15;2.10;;;1.30;;
3767;SDS011;1899;49.966;7.106;2022-11-15T16:09:40;2.47;;;1.50;;
3767;SDS011;1899;49.966;7.106;2022-11-15T16:12:24;1.70;;;1.40;;
3767;SDS011;1899;49.966;7.106;2022-11-15T16:14:49;2.23;;;1.40;;
3767;SDS011;1899;49.966;7.106;2022-11-15T16:17:18;4.60;;;1.70;;
3767;SDS011;1899;49.966;7.106;2022-11-15T16:19:44;1.90;;;1.60;;
3767;SDS011;1899;49.966;7.106;2022-11-15T16:22:10;2.97;;;1.80;;
3767;SDS011;1899;49.966;7.106;2022-11-15T16:24:35;1.67;;;1.57;;
3767;SDS011;1899;49.966;7.106;2022-11-15T16:27:00;2.40;;;1.60;;
3767;SDS011;1899;49.966;7.106;2022-11-15T16:29:25;1.73;;;1.63;;
3767;SDS011;1899;49.966;7.106;2022-11-15T16:31:51;2.10;;;1.90;;
3767;SDS011;1899;49.966;7.106;2022-11-15T16:34:16;1.90;;;1.60;;
3767;SDS011;1899;49.966;7.106;2022-11-15T16:36:42;1.80;;;1.70;;
3767;SDS011;1899;49.966;7.106;2022-11-15T16:39:10;1.70;;;1.60;;
3767;SDS011;1899;49.966;7.106;2022-11-15T16:41:35;1.90;;;1.80;;
3767;SDS011;1899;49.966;7.106;2022-11-15T16:44:01;2.60;;;2.10;;
3767;SDS011;1899;49.966;7.106;2022-11-15T16:46:26;2.17;;;1.80;;
3767;SDS011;1899;49.966;7.106;2022-11-15T16:48:52;1.75;;;1.60;;
3767;SDS011;1899;49.966;7.106;2022-11-15T16:51:18;2.30;;;1.80;;
3767;SDS011;1899;49.966;7.106;2022-11-15T16:53:44;3.13;;;1.90;;
3767;SDS011;1899;49.966;7.106;2022-11-15T16:56:13;2.97;;;2.03;;
3767;SDS011;1899;49.966;7.106;2022-11-15T16:58:41;1.98;;;1.85;;
3767;SDS011;1899;49.966;7.106;2022-11-15T17:01:09;2.80;;;2.10;;
3767;SDS011;1899;49.966;7.106;2022-11-15T17:03:39;1.98;;;1.60;;
3767;SDS011;1899;49.966;7.106;2022-11-15T17:06:04;1.80;;;1.70;;
3767;SDS011;1899;49.966;7.106;2022-11-15T17:08:30;2.20;;;1.90;;
3767;SDS011;1899;49.966;7.106;2022-11-15T17:10:55;1.90;;;1.70;;
3767;SDS011;1899;49.966;7.106;2022-11-15T17:13:20;2.00;;;1.90;;
3767;SDS011;1899;49.966;7.106;2022-11-15T17:15:45;2.93;;;2.20;;
3767;SDS011;1899;49.966;7.106;2022-11-15T17:18:11;2.60;;;2.40;;
3767;SDS011;1899;49.966;7.106;2022-11-15T17:20:40;2.10;;;1.90;;
3767;SDS011;1899;49.966;7.106;2022-11-15T17:23:05;2.40;;;2.20;;
3767;SDS011;1899;49.966;7.106;2022-11-15T17:25:36;3.30;;;2.20;;
3767;SDS011;1899;49.966;7.106;2022-11-15T17:28:01;3.37;;;2.00;;
3767;SDS011;1899;49.966;7.106;2022-11-15T17:30:26;2.90;;;2.13;;
3767;SDS011;1899;49.966;7.106;2022-11-15T17:32:51;2.30;;;2.10;;
3767;SDS011;1899;49.966;7.106;2022-11-15T17:35:17;2.70;;;2.30;;
3767;SDS011;1899;49.966;7.106;2022-11-15T17:37:42;3.27;;;2.27;;
3767;SDS011;1899;49.966;7.106;2022-11-15T17:40:07;2.27;;;2.00;;
3767;SDS011;1899;49.966;7.106;2022-11-15T17:42:33;3.15;;;2.38;;
3767;SDS011;1899;49.966;7.106;2022-11-15T17:44:58;2.40;;;2.20;;
3767;SDS011;1899;49.966;7.106;2022-11-15T17:47:23;2.13;;;1.90;;
3767;SDS011;1899;49.966;7.106;2022-11-15T17:49:49;2.93;;;1.70;;
3767;SDS011;1899;49.966;7.106;2022-11-15T17:52:14;2.30;;;1.60;;
3767;SDS011;1899;49.966;7.106;2022-11-15T17:54:40;2.10;;;1.50;;
3767;SDS011;1899;49.966;7.106;2022-11-15T17:57:05;2.10;;;1.50;;
3767;SDS011;1899;49.966;7.106;2022-11-15T17:59:30;2.20;;;1.40;;
3767;SDS011;1899;49.966;7.106;2022-11-15T18:01:55;1.70;;;1.50;;
3767;SDS011;1899;49.966;7.106;2022-11-15T18:04:21;1.47;;;1.20;;
3767;SDS011;1899;49.966;7.106;2022-11-15T18:06:52;3.45;;;1.70;;
3767;SDS011;1899;49.966;7.106;2022-11-15T18:09:17;2.80;;;1.80;;
3767;SDS011;1899;49.966;7.106;2022-11-15T18:11:43;2.10;;;1.90;;
3767;SDS011;1899;49.966;7.106;2022-11-15T18:14:13;1.90;;;1.70;;
3767;SDS011;1899;49.966;7.106;2022-11-15T18:16:38;2.17;;;1.95;;
3767;SDS011;1899;49.966;7.106;2022-11-15T18:19:04;4.82;;;2.00;;
3767;SDS011;1899;49.966;7.106;2022-11-15T18:21:35;2.80;;;1.80;;
3767;SDS011;1899;49.966;7.106;2022-11-15T18:24:19;4.43;;;2.10;;
3767;SDS011;1899;49.966;7.106;2022-11-15T18:26:45;3.20;;;2.20;;
3767;SDS011;1899;49.966;7.106;2022-11-15T18:29:10;3.17;;;2.00;;
3767;SDS011;1899;49.966;7.106;2022-11-15T18:31:35;3.17;;;2.20;;
3767;SDS011;1899;49.966;7.106;2022-11-15T18:34:00;2.40;;;2.10;;
3767;SDS011;1899;49.966;7.106;2022-11-15T18:36:26;2.73;;;2.10;;
3767;SDS011;1899;49.966;7.106;2022-11-15T18:38:53;2.97;;;2.47;;
3767;SDS011;1899;49.966;7.106;2022-11-15T18:41:18;2.90;;;2.40;;
3767;SDS011;1899;49.966;7.106;2022-11-15T18:43:45;2.10;;;1.90;;
3767;SDS011;1899;49.966;7.106;2022-11-15T18:46:11;2.50;;;2.30;;
3767;SDS011;1899;49.966;7.106;2022-11-15T18:48:37;2.70;;;2.10;;
3767;SDS011;1899;49.966;7.106;2022-11-15T18:53:29;2.87;;;2.47;;
3767;SDS011;1899;49.966;7.106;2022-11-15T18:55:58;2.10;;;2.00;;
3767;SDS011;1899;49.966;7.106;2022-11-15T18:58:24;3.03;;;2.70;;
3767;SDS011;1899;49.966;7.106;2022-11-15T19:00:49;2.90;;;2.37;;
3767;SDS011;1899;49.966;7.106;2022-11-15T19:03:14;2.70;;;2.50;;
3767;SDS011;1899;49.966;7.106;2022-11-15T19:05:39;3.00;;;2.70;;
3767;SDS011;1899;49.966;7.106;2022-11-15T19:08:05;4.20;;;2.43;;
3767;SDS011;1899;49.966;7.106;2022-11-15T19:10:30;3.67;;;2.60;;
3767;SDS011;1899;49.966;7.106;2022-11-15T19:12:55;3.40;;;2.70;;
3767;SDS011;1899;49.966;7.106;2022-11-15T19:15:20;3.78;;;3.03;;
3767;SDS011;1899;49.966;7.106;2022-11-15T19:17:45;3.23;;;2.93;;
3767;SDS011;1899;49.966;7.106;2022-11-15T19:20:11;3.25;;;2.58;;
3767;SDS011;1899;49.966;7.106;2022-11-15T19:22:36;4.30;;;3.40;;
3767;SDS011;1899;49.966;7.106;2022-11-15T19:25:02;4.07;;;2.90;;
3767;SDS011;1899;49.966;7.106;2022-11-15T19:27:28;3.63;;;3.22;;
3767;SDS011;1899;49.966;7.106;2022-11-15T19:29:53;3.40;;;3.10;;
3767;SDS011;1899;49.966;7.106;2022-11-15T19:32:19;2.90;;;2.60;;
3767;SDS011;1899;49.966;7.106;2022-11-15T19:34:44;3.43;;;3.13;;
3767;SDS011;1899;49.966;7.106;2022-11-15T19:37:09;3.30;;;3.00;;
3767;SDS011;1899;49.966;7.106;2022-11-15T19:39:35;5.10;;;3.73;;
3767;SDS011;1899;49.966;7.106;2022-11-15T19:42:00;4.50;;;4.00;;
3767;SDS011;1899;49.966;7.106;2022-11-15T19:44:25;5.10;;;4.60;;
3767;SDS011;1899;49.966;7.106;2022-11-15T19:46:51;4.47;;;4.07;;
3767;SDS011;1899;49.966;7.106;2022-11-15T19:49:16;4.60;;;4.20;;
3767;SDS011;1899;49.966;7.106;2022-11-15T19:51:41;7.07;;;4.00;;
3767;SDS011;1899;49.966;7.106;2022-11-15T19:54:09;4.70;;;4.30;;
3767;SDS011;1899;49.966;7.106;2022-11-15T19:56:34;4.83;;;4.43;;
3767;SDS011;1899;49.966;7.106;2022-11-15T19:59:00;4.33;;;3.93;;
3767;SDS011;1899;49.966;7.106;2022-11-15T20:01:26;4.40;;;3.90;;
3767;SDS011;1899;49.966;7.106;2022-11-15T20:03:53;3.90;;;3.50;;
3767;SDS011;1899;49.966;7.106;2022-11-15T20:06:20;5.07;;;4.17;;
3767;SDS011;1899;49.966;7.106;2022-11-15T20:08:46;4.90;;;4.40;;
3767;SDS011;1899;49.966;7.106;2022-11-15T20:11:12;4.30;;;3.90;;
3767;SDS011;1899;49.966;7.106;2022-11-15T20:13:37;4.33;;;3.93;;
3767;SDS011;1899;49.966;7.106;2022-11-15T20:16:03;4.17;;;3.70;;
3767;SDS011;1899;49.966;7.106;2022-11-15T20:18:28;5.40;;;4.90;;
3767;SDS011;1899;49.966;7.106;2022-11-15T20:20:54;5.97;;;4.40;;
3767;SDS011;1899;49.966;7.106;2022-11-15T20:23:26;5.10;;;4.60;;
3767;SDS011;1899;49.966;7.106;2022-11-15T20:25:51;4.78;;;4.38;;
3767;SDS011;1899;49.966;7.106;2022-11-15T20:28:18;6.03;;;5.43;;
3767;SDS011;1899;49.966;7.106;2022-11-15T20:30:44;6.50;;;5.78;;
3767;SDS011;1899;49.966;7.106;2022-11-15T20:33:09;8.20;;;6.40;;
3767;SDS011;1899;49.966;7.106;2022-11-15T20:35:34;6.25;;;5.65;;
3767;SDS011;1899;49.966;7.106;2022-11-15T20:38:00;6.40;;;5.80;;
3767;SDS011;1899;49.966;7.106;2022-11-15T20:40:25;6.90;;;6.30;;
3767;SDS011;1899;49.966;7.106;2022-11-15T20:42:53;6.00;;;5.20;;
3767;SDS011;1899;49.966;7.106;2022-11-15T20:45:18;6.30;;;5.57;;
3767;SDS011;1899;49.966;7.106;2022-11-15T20:47:44;6.50;;;5.10;;
3767;SDS011;1899;49.966;7.106;2022-11-15T20:50:09;7.50;;;6.30;;
3767;SDS011;1899;49.966;7.106;2022-11-15T20:52:34;8.70;;;7.63;;
3767;SDS011;1899;49.966;7.106;2022-11-15T20:54:59;9.50;;;6.73;;
3767;SDS011;1899;49.966;7.106;2022-11-15T20:57:25;6.17;;;5.67;;
3767;SDS011;1899;49.966;7.106;2022-11-15T20:59:50;7.23;;;6.50;;
